sensor_id;sensor_type;location;lat;lon;timestamp;temperature;humidity
49579;DHT22;35483;50.828;3.228;2023-03-05T00:01:26;7.50;99.60
49579;DHT22;35483;50.828;3.228;2023-03-05T00:03:53;7.50;99.60
49579;DHT22;35483;50.828;3.228;2023-03-05T00:06:21;7.50;99.20
49579;DHT22;35483;50.828;3.228;2023-03-05T00:08:48;7.60;99.30
49579;DHT22;35483;50.828;3.228;2023-03-05T00:11:14;7.60;99.00
49579;DHT22;35483;50.828;3.228;2023-03-05T00:13:41;7.70;98.90
49579;DHT22;35483;50.828;3.228;2023-03-05T00:16:13;7.60;98.90
49579;DHT22;35483;50.828;3.228;2023-03-05T00:18:40;7.60;99.00
49579;DHT22;35483;50.828;3.228;2023-03-05T00:21:31;7.60;99.00
49579;DHT22;35483;50.828;3.228;2023-03-05T00:23:57;7.60;99.50
49579;DHT22;35483;50.828;3.228;2023-03-05T00:26:26;7.50;99.20
49579;DHT22;35483;50.828;3.228;2023-03-05T00:28:54;7.40;99.20
49579;DHT22;35483;50.828;3.228;2023-03-05T00:31:23;7.40;99.10
49579;DHT22;35483;50.828;3.228;2023-03-05T00:33:53;7.40;99.20
49579;DHT22;35483;50.828;3.228;2023-03-05T00:36:20;7.40;99.30
49579;DHT22;35483;50.828;3.228;2023-03-05T00:38:46;7.40;99.40
49579;DHT22;35483;50.828;3.228;2023-03-05T00:41:11;7.50;99.20
49579;DHT22;35483;50.828;3.228;2023-03-05T00:43:37;7.40;99.40
49579;DHT22;35483;50.828;3.228;2023-03-05T00:46:03;7.50;99.30
49579;DHT22;35483;50.828;3.228;2023-03-05T00:48:29;7.50;99.50
49579;DHT22;35483;50.828;3.228;2023-03-05T00:50:55;7.50;99.30
49579;DHT22;35483;50.828;3.228;2023-03-05T00:53:21;7.50;99.10
49579;DHT22;35483;50.828;3.228;2023-03-05T00:55:47;7.50;99.00
49579;DHT22;35483;50.828;3.228;2023-03-05T00:58:13;7.50;99.00
49579;DHT22;35483;50.828;3.228;2023-03-05T01:00:39;7.60;99.00
49579;DHT22;35483;50.828;3.228;2023-03-05T01:03:06;7.50;98.80
49579;DHT22;35483;50.828;3.228;2023-03-05T01:05:31;7.50;98.90
49579;DHT22;35483;50.828;3.228;2023-03-05T01:07:57;7.40;98.90
49579;DHT22;35483;50.828;3.228;2023-03-05T01:10:24;7.30;98.90
49579;DHT22;35483;50.828;3.228;2023-03-05T01:12:54;7.30;99.00
49579;DHT22;35483;50.828;3.228;2023-03-05T01:15:19;7.30;99.10
49579;DHT22;35483;50.828;3.228;2023-03-05T01:17:45;7.30;99.10
49579;DHT22;35483;50.828;3.228;2023-03-05T01:20:13;7.30;99.00
49579;DHT22;35483;50.828;3.228;2023-03-05T01:22:39;7.30;99.10
49579;DHT22;35483;50.828;3.228;2023-03-05T01:25:05;7.30;99.00
49579;DHT22;35483;50.828;3.228;2023-03-05T01:27:31;7.30;99.00
49579;DHT22;35483;50.828;3.228;2023-03-05T01:29:57;7.30;98.90
49579;DHT22;35483;50.828;3.228;2023-03-05T01:32:23;7.30;98.80
49579;DHT22;35483;50.828;3.228;2023-03-05T01:34:48;7.30;98.80
49579;DHT22;35483;50.828;3.228;2023-03-05T01:37:14;7.30;98.80
49579;DHT22;35483;50.828;3.228;2023-03-05T01:39:40;7.30;98.80
49579;DHT22;35483;50.828;3.228;2023-03-05T01:42:06;7.30;98.70
49579;DHT22;35483;50.828;3.228;2023-03-05T01:44:32;7.40;98.50
49579;DHT22;35483;50.828;3.228;2023-03-05T01:46:58;7.40;98.60
49579;DHT22;35483;50.828;3.228;2023-03-05T01:49:26;7.30;98.50
49579;DHT22;35483;50.828;3.228;2023-03-05T01:54:27;7.40;98.80
49579;DHT22;35483;50.828;3.228;2023-03-05T01:56:56;7.30;99.10
49579;DHT22;35483;50.828;3.228;2023-03-05T01:59:24;7.40;98.70
49579;DHT22;35483;50.828;3.228;2023-03-05T02:01:54;7.40;99.20
49579;DHT22;35483;50.828;3.228;2023-03-05T02:04:25;7.30;99.20
49579;DHT22;35483;50.828;3.228;2023-03-05T02:06:53;7.30;99.10
49579;DHT22;35483;50.828;3.228;2023-03-05T02:09:19;7.30;98.90
49579;DHT22;35483;50.828;3.228;2023-03-05T02:11:48;7.30;98.90
49579;DHT22;35483;50.828;3.228;2023-03-05T02:14:14;7.40;98.90
49579;DHT22;35483;50.828;3.228;2023-03-05T02:16:40;7.40;98.90
49579;DHT22;35483;50.828;3.228;2023-03-05T02:19:09;7.40;99.10
49579;DHT22;35483;50.828;3.228;2023-03-05T02:21:38;7.40;99.10
49579;DHT22;35483;50.828;3.228;2023-03-05T02:24:05;7.40;99.20
49579;DHT22;35483;50.828;3.228;2023-03-05T02:26:31;7.30;99.10
49579;DHT22;35483;50.828;3.228;2023-03-05T02:28:59;7.40;99.10
49579;DHT22;35483;50.828;3.228;2023-03-05T02:31:26;7.40;99.10
49579;DHT22;35483;50.828;3.228;2023-03-05T02:33:52;7.40;99.10
49579;DHT22;35483;50.828;3.228;2023-03-05T02:36:19;7.40;99.20
49579;DHT22;35483;50.828;3.228;2023-03-05T02:38:45;7.40;99.20
49579;DHT22;35483;50.828;3.228;2023-03-05T02:41:11;7.40;99.10
49579;DHT22;35483;50.828;3.228;2023-03-05T02:43:37;7.40;99.20
49579;DHT22;35483;50.828;3.228;2023-03-05T02:46:03;7.40;99.20
49579;DHT22;35483;50.828;3.228;2023-03-05T02:48:29;7.40;99.10
49579;DHT22;35483;50.828;3.228;2023-03-05T02:50:55;7.40;99.10
49579;DHT22;35483;50.828;3.228;2023-03-05T02:53:21;7.40;99.20
49579;DHT22;35483;50.828;3.228;2023-03-05T02:55:49;7.40;99.20
49579;DHT22;35483;50.828;3.228;2023-03-05T02:58:15;7.40;99.10
49579;DHT22;35483;50.828;3.228;2023-03-05T03:00:41;7.40;99.20
49579;DHT22;35483;50.828;3.228;2023-03-05T03:03:09;7.40;99.20
49579;DHT22;35483;50.828;3.228;2023-03-05T03:05:35;7.40;99.30
49579;DHT22;35483;50.828;3.228;2023-03-05T03:08:01;7.40;99.30
49579;DHT22;35483;50.828;3.228;2023-03-05T03:10:27;7.40;99.30
49579;DHT22;35483;50.828;3.228;2023-03-05T03:12:53;7.40;99.20
49579;DHT22;35483;50.828;3.228;2023-03-05T03:15:20;7.40;99.00
49579;DHT22;35483;50.828;3.228;2023-03-05T03:17:46;7.40;99.00
49579;DHT22;35483;50.828;3.228;2023-03-05T03:20:14;7.40;98.80
49579;DHT22;35483;50.828;3.228;2023-03-05T03:22:41;7.40;98.90
49579;DHT22;35483;50.828;3.228;2023-03-05T03:25:07;7.40;98.90
49579;DHT22;35483;50.828;3.228;2023-03-05T03:27:34;7.40;98.60
49579;DHT22;35483;50.828;3.228;2023-03-05T03:29:59;7.40;98.50
49579;DHT22;35483;50.828;3.228;2023-03-05T03:32:30;7.40;98.50
49579;DHT22;35483;50.828;3.228;2023-03-05T03:34:56;7.40;98.60
49579;DHT22;35483;50.828;3.228;2023-03-05T03:37:22;7.40;98.40
49579;DHT22;35483;50.828;3.228;2023-03-05T03:39:47;7.30;99.30
49579;DHT22;35483;50.828;3.228;2023-03-05T03:42:19;7.20;99.50
49579;DHT22;35483;50.828;3.228;2023-03-05T03:44:45;7.10;99.40
49579;DHT22;35483;50.828;3.228;2023-03-05T03:47:11;7.20;99.00
49579;DHT22;35483;50.828;3.228;2023-03-05T03:49:38;7.10;99.30
49579;DHT22;35483;50.828;3.228;2023-03-05T03:52:04;7.10;99.40
49579;DHT22;35483;50.828;3.228;2023-03-05T03:54:30;7.00;99.20
49579;DHT22;35483;50.828;3.228;2023-03-05T03:56:56;7.10;99.10
49579;DHT22;35483;50.828;3.228;2023-03-05T03:59:21;7.10;99.10
49579;DHT22;35483;50.828;3.228;2023-03-05T04:01:47;7.10;99.20
49579;DHT22;35483;50.828;3.228;2023-03-05T04:04:13;7.10;99.20
49579;DHT22;35483;50.828;3.228;2023-03-05T04:06:39;7.10;99.30
49579;DHT22;35483;50.828;3.228;2023-03-05T04:09:05;7.00;99.30
49579;DHT22;35483;50.828;3.228;2023-03-05T04:11:33;7.00;99.40
49579;DHT22;35483;50.828;3.228;2023-03-05T04:13:59;7.10;99.50
49579;DHT22;35483;50.828;3.228;2023-03-05T04:16:25;7.00;99.40
49579;DHT22;35483;50.828;3.228;2023-03-05T04:18:51;7.00;99.40
49579;DHT22;35483;50.828;3.228;2023-03-05T04:21:16;7.00;99.40
49579;DHT22;35483;50.828;3.228;2023-03-05T04:23:42;7.10;99.40
49579;DHT22;35483;50.828;3.228;2023-03-05T04:26:08;7.00;99.30
49579;DHT22;35483;50.828;3.228;2023-03-05T04:28:34;7.10;99.40
49579;DHT22;35483;50.828;3.228;2023-03-05T04:31:00;7.10;99.50
49579;DHT22;35483;50.828;3.228;2023-03-05T04:33:26;7.00;99.40
49579;DHT22;35483;50.828;3.228;2023-03-05T04:35:51;7.00;99.50
49579;DHT22;35483;50.828;3.228;2023-03-05T04:38:17;7.00;99.80
49579;DHT22;35483;50.828;3.228;2023-03-05T04:40:44;7.00;99.70
49579;DHT22;35483;50.828;3.228;2023-03-05T04:43:10;7.00;99.60
49579;DHT22;35483;50.828;3.228;2023-03-05T04:45:40;7.00;99.60
49579;DHT22;35483;50.828;3.228;2023-03-05T04:48:07;7.00;99.50
49579;DHT22;35483;50.828;3.228;2023-03-05T04:50:33;7.10;99.50
49579;DHT22;35483;50.828;3.228;2023-03-05T04:52:58;7.00;99.60
49579;DHT22;35483;50.828;3.228;2023-03-05T04:55:25;7.00;99.70
49579;DHT22;35483;50.828;3.228;2023-03-05T04:57:51;7.00;99.30
49579;DHT22;35483;50.828;3.228;2023-03-05T05:00:17;7.10;99.20
49579;DHT22;35483;50.828;3.228;2023-03-05T05:02:45;7.10;99.10
49579;DHT22;35483;50.828;3.228;2023-03-05T05:05:14;7.10;99.10
49579;DHT22;35483;50.828;3.228;2023-03-05T05:07:40;7.10;99.20
49579;DHT22;35483;50.828;3.228;2023-03-05T05:10:07;7.00;99.20
49579;DHT22;35483;50.828;3.228;2023-03-05T05:12:33;7.00;99.00
49579;DHT22;35483;50.828;3.228;2023-03-05T05:14:59;7.00;99.10
49579;DHT22;35483;50.828;3.228;2023-03-05T05:17:26;7.00;99.10
49579;DHT22;35483;50.828;3.228;2023-03-05T05:19:52;7.00;98.90
49579;DHT22;35483;50.828;3.228;2023-03-05T05:22:19;7.00;99.00
49579;DHT22;35483;50.828;3.228;2023-03-05T05:24:45;7.00;99.10
49579;DHT22;35483;50.828;3.228;2023-03-05T05:27:11;7.00;99.10
49579;DHT22;35483;50.828;3.228;2023-03-05T05:29:37;7.00;99.10
49579;DHT22;35483;50.828;3.228;2023-03-05T05:32:03;7.00;99.30
49579;DHT22;35483;50.828;3.228;2023-03-05T05:34:30;7.00;99.30
49579;DHT22;35483;50.828;3.228;2023-03-05T05:36:55;7.00;99.30
49579;DHT22;35483;50.828;3.228;2023-03-05T05:39:21;7.00;99.10
49579;DHT22;35483;50.828;3.228;2023-03-05T05:41:51;7.00;99.10
49579;DHT22;35483;50.828;3.228;2023-03-05T05:44:17;7.00;99.20
49579;DHT22;35483;50.828;3.228;2023-03-05T05:46:42;7.00;99.10
49579;DHT22;35483;50.828;3.228;2023-03-05T05:49:08;7.00;99.10
49579;DHT22;35483;50.828;3.228;2023-03-05T05:51:34;7.00;99.20
49579;DHT22;35483;50.828;3.228;2023-03-05T05:54:00;7.00;99.50
49579;DHT22;35483;50.828;3.228;2023-03-05T05:56:26;7.00;99.30
49579;DHT22;35483;50.828;3.228;2023-03-05T05:58:52;7.00;99.40
49579;DHT22;35483;50.828;3.228;2023-03-05T06:01:27;7.00;99.40
49579;DHT22;35483;50.828;3.228;2023-03-05T06:03:55;7.00;99.50
49579;DHT22;35483;50.828;3.228;2023-03-05T06:06:22;7.00;99.30
49579;DHT22;35483;50.828;3.228;2023-03-05T06:08:48;7.00;99.40
49579;DHT22;35483;50.828;3.228;2023-03-05T06:11:15;7.10;99.40
49579;DHT22;35483;50.828;3.228;2023-03-05T06:13:40;7.00;99.30
49579;DHT22;35483;50.828;3.228;2023-03-05T06:16:10;7.00;99.30
49579;DHT22;35483;50.828;3.228;2023-03-05T06:18:36;7.00;99.40
49579;DHT22;35483;50.828;3.228;2023-03-05T06:21:11;7.00;99.50
49579;DHT22;35483;50.828;3.228;2023-03-05T06:23:37;7.00;99.30
49579;DHT22;35483;50.828;3.228;2023-03-05T06:26:04;7.00;99.20
49579;DHT22;35483;50.828;3.228;2023-03-05T06:28:31;7.00;99.40
49579;DHT22;35483;50.828;3.228;2023-03-05T06:31:05;7.00;99.40
49579;DHT22;35483;50.828;3.228;2023-03-05T06:33:32;7.10;99.30
49579;DHT22;35483;50.828;3.228;2023-03-05T06:35:58;7.10;99.20
49579;DHT22;35483;50.828;3.228;2023-03-05T06:38:24;7.10;99.20
49579;DHT22;35483;50.828;3.228;2023-03-05T06:40:50;7.00;99.50
49579;DHT22;35483;50.828;3.228;2023-03-05T06:43:16;7.00;99.60
49579;DHT22;35483;50.828;3.228;2023-03-05T06:45:42;7.00;99.40
49579;DHT22;35483;50.828;3.228;2023-03-05T06:48:08;7.00;99.40
49579;DHT22;35483;50.828;3.228;2023-03-05T06:50:35;7.10;99.40
49579;DHT22;35483;50.828;3.228;2023-03-05T06:53:01;7.10;99.60
49579;DHT22;35483;50.828;3.228;2023-03-05T06:55:27;7.10;99.40
49579;DHT22;35483;50.828;3.228;2023-03-05T06:57:53;7.10;99.40
49579;DHT22;35483;50.828;3.228;2023-03-05T07:00:19;7.10;99.20
49579;DHT22;35483;50.828;3.228;2023-03-05T07:02:45;7.20;99.30
49579;DHT22;35483;50.828;3.228;2023-03-05T07:05:11;7.20;99.30
49579;DHT22;35483;50.828;3.228;2023-03-05T07:07:37;7.20;99.50
49579;DHT22;35483;50.828;3.228;2023-03-05T07:10:03;7.20;99.20
49579;DHT22;35483;50.828;3.228;2023-03-05T07:12:33;7.20;99.40
49579;DHT22;35483;50.828;3.228;2023-03-05T07:14:59;7.20;99.40
49579;DHT22;35483;50.828;3.228;2023-03-05T07:17:26;7.20;99.40
49579;DHT22;35483;50.828;3.228;2023-03-05T07:19:51;7.30;99.40
49579;DHT22;35483;50.828;3.228;2023-03-05T07:22:17;7.30;99.00
49579;DHT22;35483;50.828;3.228;2023-03-05T07:24:43;7.30;98.90
49579;DHT22;35483;50.828;3.228;2023-03-05T07:27:09;7.30;99.00
49579;DHT22;35483;50.828;3.228;2023-03-05T07:29:36;7.30;98.90
49579;DHT22;35483;50.828;3.228;2023-03-05T07:32:01;7.30;99.20
49579;DHT22;35483;50.828;3.228;2023-03-05T07:34:27;7.40;99.20
49579;DHT22;35483;50.828;3.228;2023-03-05T07:36:53;7.40;99.40
49579;DHT22;35483;50.828;3.228;2023-03-05T07:39:18;7.40;99.20
49579;DHT22;35483;50.828;3.228;2023-03-05T07:41:45;7.40;99.40
49579;DHT22;35483;50.828;3.228;2023-03-05T07:44:12;7.50;99.20
49579;DHT22;35483;50.828;3.228;2023-03-05T07:46:37;7.60;99.30
49579;DHT22;35483;50.828;3.228;2023-03-05T07:49:03;7.60;99.30
49579;DHT22;35483;50.828;3.228;2023-03-05T07:51:29;7.60;99.20
49579;DHT22;35483;50.828;3.228;2023-03-05T07:53:56;7.70;99.30
49579;DHT22;35483;50.828;3.228;2023-03-05T07:56:33;7.70;99.10
49579;DHT22;35483;50.828;3.228;2023-03-05T07:59:05;7.80;99.20
49579;DHT22;35483;50.828;3.228;2023-03-05T08:01:32;7.80;99.20
49579;DHT22;35483;50.828;3.228;2023-03-05T08:03:57;7.80;99.00
49579;DHT22;35483;50.828;3.228;2023-03-05T08:06:23;7.80;99.10
49579;DHT22;35483;50.828;3.228;2023-03-05T08:08:49;7.80;99.00
49579;DHT22;35483;50.828;3.228;2023-03-05T08:11:15;7.80;98.90
49579;DHT22;35483;50.828;3.228;2023-03-05T08:13:43;7.90;99.00
49579;DHT22;35483;50.828;3.228;2023-03-05T08:16:11;7.90;98.80
49579;DHT22;35483;50.828;3.228;2023-03-05T08:18:38;7.90;98.80
49579;DHT22;35483;50.828;3.228;2023-03-05T08:21:04;8.00;98.80
49579;DHT22;35483;50.828;3.228;2023-03-05T08:23:30;8.00;98.80
49579;DHT22;35483;50.828;3.228;2023-03-05T08:25:56;8.10;98.70
49579;DHT22;35483;50.828;3.228;2023-03-05T08:28:22;8.10;98.70
49579;DHT22;35483;50.828;3.228;2023-03-05T08:30:48;8.20;98.60
49579;DHT22;35483;50.828;3.228;2023-03-05T08:33:14;8.20;98.70
49579;DHT22;35483;50.828;3.228;2023-03-05T08:35:42;8.20;98.60
49579;DHT22;35483;50.828;3.228;2023-03-05T08:38:08;8.20;98.60
49579;DHT22;35483;50.828;3.228;2023-03-05T08:40:34;8.20;98.40
49579;DHT22;35483;50.828;3.228;2023-03-05T08:42:59;8.20;98.40
49579;DHT22;35483;50.828;3.228;2023-03-05T08:45:26;8.10;98.40
49579;DHT22;35483;50.828;3.228;2023-03-05T08:47:54;8.10;98.50
49579;DHT22;35483;50.828;3.228;2023-03-05T08:50:21;8.10;98.50
49579;DHT22;35483;50.828;3.228;2023-03-05T08:52:48;8.20;98.30
49579;DHT22;35483;50.828;3.228;2023-03-05T08:55:14;8.20;98.50
49579;DHT22;35483;50.828;3.228;2023-03-05T08:57:41;8.30;98.40
49579;DHT22;35483;50.828;3.228;2023-03-05T09:00:07;8.40;98.20
49579;DHT22;35483;50.828;3.228;2023-03-05T09:02:35;8.40;98.20
49579;DHT22;35483;50.828;3.228;2023-03-05T09:05:01;8.50;98.20
49579;DHT22;35483;50.828;3.228;2023-03-05T09:07:27;8.60;98.20
49579;DHT22;35483;50.828;3.228;2023-03-05T09:09:52;8.70;98.20
49579;DHT22;35483;50.828;3.228;2023-03-05T09:12:18;8.70;98.10
49579;DHT22;35483;50.828;3.228;2023-03-05T09:14:44;8.80;98.10
49579;DHT22;35483;50.828;3.228;2023-03-05T09:17:09;8.80;97.70
49579;DHT22;35483;50.828;3.228;2023-03-05T09:19:35;8.70;97.90
49579;DHT22;35483;50.828;3.228;2023-03-05T09:22:01;8.70;98.00
49579;DHT22;35483;50.828;3.228;2023-03-05T09:24:26;8.70;98.00
49579;DHT22;35483;50.828;3.228;2023-03-05T09:26:52;8.70;97.90
49579;DHT22;35483;50.828;3.228;2023-03-05T09:29:18;8.80;97.80
49579;DHT22;35483;50.828;3.228;2023-03-05T09:31:44;8.80;97.70
49579;DHT22;35483;50.828;3.228;2023-03-05T09:34:10;8.80;97.80
49579;DHT22;35483;50.828;3.228;2023-03-05T09:36:36;8.80;97.70
49579;DHT22;35483;50.828;3.228;2023-03-05T09:39:03;8.80;97.40
49579;DHT22;35483;50.828;3.228;2023-03-05T09:47:08;8.60;97.40
49579;DHT22;35483;50.828;3.228;2023-03-05T09:49:57;8.60;97.40
49579;DHT22;35483;50.828;3.228;2023-03-05T09:52:45;8.60;97.50
49579;DHT22;35483;50.828;3.228;2023-03-05T09:55:24;8.70;97.40
49579;DHT22;35483;50.828;3.228;2023-03-05T09:57:56;8.70;97.20
49579;DHT22;35483;50.828;3.228;2023-03-05T10:02:59;8.60;96.80
49579;DHT22;35483;50.828;3.228;2023-03-05T10:05:35;8.70;96.90
49579;DHT22;35483;50.828;3.228;2023-03-05T10:08:09;8.70;97.10
49579;DHT22;35483;50.828;3.228;2023-03-05T10:10:40;8.80;97.00
49579;DHT22;35483;50.828;3.228;2023-03-05T10:13:29;8.90;96.90
49579;DHT22;35483;50.828;3.228;2023-03-05T10:16:30;9.00;96.90
49579;DHT22;35483;50.828;3.228;2023-03-05T10:19:17;9.00;96.70
49579;DHT22;35483;50.828;3.228;2023-03-05T10:21:48;8.90;96.90
49579;DHT22;35483;50.828;3.228;2023-03-05T10:24:29;9.00;96.90
49579;DHT22;35483;50.828;3.228;2023-03-05T10:27:05;9.00;96.70
49579;DHT22;35483;50.828;3.228;2023-03-05T10:32:18;9.10;96.70
49579;DHT22;35483;50.828;3.228;2023-03-05T10:37:53;9.10;96.70
49579;DHT22;35483;50.828;3.228;2023-03-05T10:40:38;9.20;96.60
49579;DHT22;35483;50.828;3.228;2023-03-05T10:43:35;9.20;96.50
49579;DHT22;35483;50.828;3.228;2023-03-05T10:46:03;9.20;96.50
49579;DHT22;35483;50.828;3.228;2023-03-05T10:48:49;9.20;97.00
49579;DHT22;35483;50.828;3.228;2023-03-05T10:56:48;9.30;96.70
49579;DHT22;35483;50.828;3.228;2023-03-05T10:59:14;9.30;96.60
49579;DHT22;35483;50.828;3.228;2023-03-05T11:01:40;9.20;96.70
49579;DHT22;35483;50.828;3.228;2023-03-05T11:04:08;9.10;96.70
49579;DHT22;35483;50.828;3.228;2023-03-05T11:06:49;9.10;96.70
49579;DHT22;35483;50.828;3.228;2023-03-05T11:09:26;9.10;96.70
49579;DHT22;35483;50.828;3.228;2023-03-05T11:12:18;9.00;96.70
49579;DHT22;35483;50.828;3.228;2023-03-05T11:15:00;8.90;96.70
49579;DHT22;35483;50.828;3.228;2023-03-05T11:17:39;9.00;96.80
49579;DHT22;35483;50.828;3.228;2023-03-05T11:25:29;8.90;97.10
49579;DHT22;35483;50.828;3.228;2023-03-05T11:27:57;8.80;97.00
49579;DHT22;35483;50.828;3.228;2023-03-05T11:30:30;9.00;97.10
49579;DHT22;35483;50.828;3.228;2023-03-05T11:35:37;9.10;97.10
49579;DHT22;35483;50.828;3.228;2023-03-05T11:38:06;9.10;97.20
49579;DHT22;35483;50.828;3.228;2023-03-05T11:40:33;9.10;97.10
49579;DHT22;35483;50.828;3.228;2023-03-05T11:43:02;9.00;97.20
49579;DHT22;35483;50.828;3.228;2023-03-05T11:45:30;9.00;97.30
49579;DHT22;35483;50.828;3.228;2023-03-05T11:48:12;8.80;97.40
49579;DHT22;35483;50.828;3.228;2023-03-05T11:50:43;8.80;97.40
49579;DHT22;35483;50.828;3.228;2023-03-05T11:53:24;8.90;97.30
49579;DHT22;35483;50.828;3.228;2023-03-05T11:56:18;8.90;97.40
49579;DHT22;35483;50.828;3.228;2023-03-05T12:01:31;8.90;97.60
49579;DHT22;35483;50.828;3.228;2023-03-05T12:03:58;9.00;97.60
49579;DHT22;35483;50.828;3.228;2023-03-05T12:08:56;9.00;97.50
49579;DHT22;35483;50.828;3.228;2023-03-05T12:11:28;9.00;97.50
49579;DHT22;35483;50.828;3.228;2023-03-05T12:14:41;9.00;97.50
49579;DHT22;35483;50.828;3.228;2023-03-05T12:16:51;9.00;97.50
49579;DHT22;35483;50.828;3.228;2023-03-05T12:19:37;8.90;97.60
49579;DHT22;35483;50.828;3.228;2023-03-05T12:22:18;8.90;97.40
49579;DHT22;35483;50.828;3.228;2023-03-05T12:24:44;8.80;97.60
49579;DHT22;35483;50.828;3.228;2023-03-05T12:27:12;8.70;97.70
49579;DHT22;35483;50.828;3.228;2023-03-05T12:29:52;8.70;97.60
49579;DHT22;35483;50.828;3.228;2023-03-05T12:34:49;8.70;97.40
49579;DHT22;35483;50.828;3.228;2023-03-05T12:47:42;8.30;97.10
49579;DHT22;35483;50.828;3.228;2023-03-05T12:52:57;8.30;97.20
49579;DHT22;35483;50.828;3.228;2023-03-05T12:58:42;8.30;97.20
49579;DHT22;35483;50.828;3.228;2023-03-05T13:01:37;8.40;97.00
49579;DHT22;35483;50.828;3.228;2023-03-05T13:04:11;8.40;96.90
49579;DHT22;35483;50.828;3.228;2023-03-05T13:06:39;8.40;96.60
49579;DHT22;35483;50.828;3.228;2023-03-05T13:09:24;8.30;96.60
49579;DHT22;35483;50.828;3.228;2023-03-05T13:11:53;8.30;96.50
49579;DHT22;35483;50.828;3.228;2023-03-05T13:14:42;8.30;96.50
49579;DHT22;35483;50.828;3.228;2023-03-05T13:17:40;8.30;96.30
49579;DHT22;35483;50.828;3.228;2023-03-05T13:20:28;8.30;96.40
49579;DHT22;35483;50.828;3.228;2023-03-05T13:25:58;8.30;96.40
49579;DHT22;35483;50.828;3.228;2023-03-05T13:28:24;8.20;96.50
49579;DHT22;35483;50.828;3.228;2023-03-05T13:30:59;8.30;96.70
49579;DHT22;35483;50.828;3.228;2023-03-05T13:33:32;8.30;96.60
49579;DHT22;35483;50.828;3.228;2023-03-05T13:35:59;8.30;96.70
49579;DHT22;35483;50.828;3.228;2023-03-05T13:38:35;8.40;96.80
49579;DHT22;35483;50.828;3.228;2023-03-05T13:43:47;8.50;96.70
49579;DHT22;35483;50.828;3.228;2023-03-05T13:48:53;8.50;96.90
49579;DHT22;35483;50.828;3.228;2023-03-05T13:51:18;8.50;97.00
49579;DHT22;35483;50.828;3.228;2023-03-05T13:53:45;8.60;97.00
49579;DHT22;35483;50.828;3.228;2023-03-05T13:56:17;8.60;97.10
49579;DHT22;35483;50.828;3.228;2023-03-05T13:58:54;8.70;96.90
49579;DHT22;35483;50.828;3.228;2023-03-05T14:01:26;8.70;96.90
49579;DHT22;35483;50.828;3.228;2023-03-05T14:03:55;8.70;96.80
49579;DHT22;35483;50.828;3.228;2023-03-05T14:06:23;8.60;96.80
49579;DHT22;35483;50.828;3.228;2023-03-05T14:08:59;8.60;96.90
49579;DHT22;35483;50.828;3.228;2023-03-05T14:11:26;8.50;96.90
49579;DHT22;35483;50.828;3.228;2023-03-05T14:14:12;8.40;97.00
49579;DHT22;35483;50.828;3.228;2023-03-05T14:16:38;8.40;97.00
49579;DHT22;35483;50.828;3.228;2023-03-05T14:19:04;8.40;97.10
49579;DHT22;35483;50.828;3.228;2023-03-05T14:21:45;8.40;97.10
49579;DHT22;35483;50.828;3.228;2023-03-05T14:24:19;8.40;97.00
49579;DHT22;35483;50.828;3.228;2023-03-05T14:26:57;8.40;96.90
49579;DHT22;35483;50.828;3.228;2023-03-05T14:29:26;8.30;97.00
49579;DHT22;35483;50.828;3.228;2023-03-05T14:31:56;8.30;97.00
49579;DHT22;35483;50.828;3.228;2023-03-05T14:36:52;8.20;97.10
49579;DHT22;35483;50.828;3.228;2023-03-05T14:39:29;8.20;97.20
49579;DHT22;35483;50.828;3.228;2023-03-05T14:42:11;8.20;97.10
49579;DHT22;35483;50.828;3.228;2023-03-05T14:44:36;8.20;97.10
49579;DHT22;35483;50.828;3.228;2023-03-05T14:47:02;8.20;97.00
49579;DHT22;35483;50.828;3.228;2023-03-05T14:49:28;8.20;96.90
49579;DHT22;35483;50.828;3.228;2023-03-05T14:51:53;8.10;97.00
49579;DHT22;35483;50.828;3.228;2023-03-05T14:54:22;8.10;97.20
49579;DHT22;35483;50.828;3.228;2023-03-05T14:56:48;8.00;97.20
49579;DHT22;35483;50.828;3.228;2023-03-05T14:59:16;8.10;97.20
49579;DHT22;35483;50.828;3.228;2023-03-05T15:01:42;8.10;97.10
49579;DHT22;35483;50.828;3.228;2023-03-05T15:04:08;8.20;97.00
49579;DHT22;35483;50.828;3.228;2023-03-05T15:06:36;8.10;97.00
49579;DHT22;35483;50.828;3.228;2023-03-05T15:09:05;8.10;97.00
49579;DHT22;35483;50.828;3.228;2023-03-05T15:11:31;8.10;97.00
49579;DHT22;35483;50.828;3.228;2023-03-05T15:13:57;8.10;97.00
49579;DHT22;35483;50.828;3.228;2023-03-05T15:16:23;8.10;97.10
49579;DHT22;35483;50.828;3.228;2023-03-05T15:18:49;8.20;97.10
49579;DHT22;35483;50.828;3.228;2023-03-05T15:21:15;8.10;97.20
49579;DHT22;35483;50.828;3.228;2023-03-05T15:23:40;8.20;97.10
49579;DHT22;35483;50.828;3.228;2023-03-05T15:26:11;8.20;97.10
49579;DHT22;35483;50.828;3.228;2023-03-05T15:28:37;8.20;96.90
49579;DHT22;35483;50.828;3.228;2023-03-05T15:31:04;8.20;96.80
49579;DHT22;35483;50.828;3.228;2023-03-05T15:33:30;8.10;96.90
49579;DHT22;35483;50.828;3.228;2023-03-05T15:35:56;8.10;97.00
49579;DHT22;35483;50.828;3.228;2023-03-05T15:38:22;8.10;97.00
49579;DHT22;35483;50.828;3.228;2023-03-05T15:40:49;8.10;97.10
49579;DHT22;35483;50.828;3.228;2023-03-05T15:43:17;8.10;97.00
49579;DHT22;35483;50.828;3.228;2023-03-05T15:45:42;8.10;97.00
49579;DHT22;35483;50.828;3.228;2023-03-05T15:48:08;8.10;96.80
49579;DHT22;35483;50.828;3.228;2023-03-05T15:50:34;8.10;96.80
49579;DHT22;35483;50.828;3.228;2023-03-05T15:53:00;8.10;96.70
49579;DHT22;35483;50.828;3.228;2023-03-05T15:55:26;8.00;96.70
49579;DHT22;35483;50.828;3.228;2023-03-05T15:57:52;8.00;96.80
49579;DHT22;35483;50.828;3.228;2023-03-05T16:00:22;8.00;96.80
49579;DHT22;35483;50.828;3.228;2023-03-05T16:02:49;8.10;96.80
49579;DHT22;35483;50.828;3.228;2023-03-05T16:05:15;8.00;96.80
49579;DHT22;35483;50.828;3.228;2023-03-05T16:07:43;8.00;96.70
49579;DHT22;35483;50.828;3.228;2023-03-05T16:10:12;8.00;96.70
49579;DHT22;35483;50.828;3.228;2023-03-05T16:12:39;8.00;96.80
49579;DHT22;35483;50.828;3.228;2023-03-05T16:15:09;8.00;96.80
49579;DHT22;35483;50.828;3.228;2023-03-05T16:17:36;7.90;96.70
49579;DHT22;35483;50.828;3.228;2023-03-05T16:20:03;7.90;96.70
49579;DHT22;35483;50.828;3.228;2023-03-05T16:22:30;7.90;96.50
49579;DHT22;35483;50.828;3.228;2023-03-05T16:24:55;7.90;96.60
49579;DHT22;35483;50.828;3.228;2023-03-05T16:27:21;7.80;96.70
49579;DHT22;35483;50.828;3.228;2023-03-05T16:29:47;7.70;96.60
49579;DHT22;35483;50.828;3.228;2023-03-05T16:32:13;7.70;96.70
49579;DHT22;35483;50.828;3.228;2023-03-05T16:34:40;7.70;96.60
49579;DHT22;35483;50.828;3.228;2023-03-05T16:37:06;7.60;96.60
49579;DHT22;35483;50.828;3.228;2023-03-05T16:39:32;7.60;96.60
49579;DHT22;35483;50.828;3.228;2023-03-05T16:41:57;7.60;96.60
49579;DHT22;35483;50.828;3.228;2023-03-05T16:44:24;7.50;96.70
49579;DHT22;35483;50.828;3.228;2023-03-05T16:46:50;7.50;96.80
49579;DHT22;35483;50.828;3.228;2023-03-05T16:49:19;7.50;96.80
49579;DHT22;35483;50.828;3.228;2023-03-05T16:51:45;7.50;96.70
49579;DHT22;35483;50.828;3.228;2023-03-05T16:54:10;7.50;96.70
49579;DHT22;35483;50.828;3.228;2023-03-05T16:56:36;7.50;96.70
49579;DHT22;35483;50.828;3.228;2023-03-05T16:59:03;7.50;96.70